createdAt,value
2022-12-23T00:01:02.368Z,95797.94
2022-12-23T00:03:30.994Z,95794.94
2022-12-23T00:05:58.484Z,95790.94
2022-12-23T00:08:27.084Z,95790.34
2022-12-23T00:10:56.612Z,95794.75
2022-12-23T00:13:42.065Z,95794.16
2022-12-23T00:16:12.926Z,95797.53
2022-12-23T00:18:41.068Z,95787.38
2022-12-23T00:21:12.644Z,95776.66
2022-12-23T00:23:43.151Z,95776.69
2022-12-23T00:26:22.031Z,95777.09
2022-12-23T00:28:50.052Z,95770.09
2022-12-23T00:31:19.019Z,95766.44
2022-12-23T00:33:51.018Z,95767.78
2022-12-23T00:36:30.074Z,95777.31
2022-12-23T00:39:16.829Z,95773.13
2022-12-23T00:42:03.349Z,95772.03
2022-12-23T00:44:30.465Z,95766.78
2022-12-23T00:46:57.768Z,95767.16
2022-12-23T00:49:43.272Z,95764.56
2022-12-23T00:52:13.090Z,95765.59
2022-12-23T00:54:40.389Z,95767.38
2022-12-23T00:57:07.391Z,95766.00
2022-12-23T00:59:34.528Z,95765.19
2022-12-23T01:02:20.687Z,95773.00
2022-12-23T01:05:06.377Z,95772.00
2022-12-23T01:07:33.582Z,95768.03
2022-12-23T01:10:00.633Z,95766.88
2022-12-23T01:12:27.962Z,95758.91
2022-12-23T01:14:55.035Z,95760.13
2022-12-23T01:17:22.144Z,95751.97
2022-12-23T01:19:49.271Z,95748.19
2022-12-23T01:22:16.349Z,95742.22
2022-12-23T01:24:43.379Z,95743.22
2022-12-23T01:27:10.372Z,95747.00
2022-12-23T01:29:37.580Z,95733.66
2022-12-23T01:32:04.809Z,95729.47
2022-12-23T01:34:36.687Z,95733.50
2022-12-23T01:37:04.368Z,95732.91
2022-12-23T01:39:31.332Z,95733.66
2022-12-23T01:42:16.889Z,95734.66
2022-12-23T01:44:51.297Z,95724.53
2022-12-23T01:47:49.282Z,95719.97
2022-12-23T01:50:35.656Z,95714.81
2022-12-23T01:53:08.646Z,95726.56
2022-12-23T01:55:50.793Z,95720.41
2022-12-23T01:58:26.140Z,95720.44
2022-12-23T02:01:14.743Z,95726.63
2022-12-23T02:03:42.651Z,95716.91
2022-12-23T02:06:42.674Z,95727.63
2022-12-23T02:09:19.295Z,95722.09
2022-12-23T02:11:52.172Z,95719.09
2022-12-23T02:15:02.846Z,95717.50
2022-12-23T02:17:52.134Z,95715.91
2022-12-23T02:20:22.077Z,95701.78
2022-12-23T02:22:54.692Z,95706.59
2022-12-23T02:25:30.419Z,95706.19
2022-12-23T02:28:21.438Z,95702.81
2022-12-23T02:31:10.784Z,95702.00
2022-12-23T02:34:00.970Z,95698.81
2022-12-23T02:36:37.216Z,95702.22
2022-12-23T02:39:15.190Z,95690.88
2022-12-23T02:41:57.815Z,95687.09
2022-12-23T02:44:30.152Z,95689.47
2022-12-23T02:47:02.057Z,95680.53
2022-12-23T02:49:35.557Z,95679.72
2022-12-23T02:52:08.170Z,95674.19
2022-12-23T02:54:42.060Z,95689.09
2022-12-23T02:57:13.165Z,95687.94
2022-12-23T02:59:45.973Z,95689.53
2022-12-23T03:02:13.406Z,95681.59
2022-12-23T03:04:42.425Z,95670.44
2022-12-23T03:07:23.943Z,95656.72
2022-12-23T03:10:35.441Z,95662.47
2022-12-23T03:13:23.493Z,95671.63
2022-12-23T03:16:05.518Z,95683.16
2022-12-23T03:18:56.792Z,95691.88
2022-12-23T03:21:45.049Z,95687.91
2022-12-23T03:24:41.579Z,95674.97
2022-12-23T03:27:42.991Z,95687.06
2022-12-23T03:30:16.948Z,95669.34
2022-12-23T03:32:58.248Z,95675.09
2022-12-23T03:35:32.483Z,95665.34
2022-12-23T03:38:02.969Z,95676.31
2022-12-23T03:40:41.510Z,95656.97
2022-12-23T03:43:15.072Z,95657.56
2022-12-23T03:45:52.829Z,95646.44
2022-12-23T03:48:40.309Z,95634.09
2022-12-23T03:51:17.032Z,95633.66
2022-12-23T03:53:52.089Z,95625.72
2022-12-23T03:56:31.177Z,95636.47
2022-12-23T03:59:01.474Z,95657.63
2022-12-23T04:02:05.749Z,95617.22
2022-12-23T04:05:01.308Z,95626.94
2022-12-23T04:07:34.650Z,95629.31
2022-12-23T04:10:01.787Z,95624.91
2022-12-23T04:12:30.599Z,95622.16
2022-12-23T04:14:58.105Z,95611.97
2022-12-23T04:17:25.212Z,95614.50
2022-12-23T04:19:53.374Z,95612.53
2022-12-23T04:22:20.626Z,95609.31
2022-12-23T04:24:47.776Z,95610.09
2022-12-23T04:27:15.733Z,95607.31
2022-12-23T04:29:43.990Z,95607.31
2022-12-23T04:32:11.424Z,95614.91
2022-12-23T04:34:38.461Z,95610.50
2022-12-23T04:37:05.507Z,95603.09
2022-12-23T04:39:32.597Z,95598.72
2022-12-23T04:41:59.598Z,95599.69
2022-12-23T04:44:26.595Z,95600.97
2022-12-23T04:46:53.899Z,95582.84
2022-12-23T04:49:20.930Z,95582.03
2022-12-23T04:51:47.954Z,95566.53
2022-12-23T04:54:15.075Z,95561.97
2022-12-23T04:56:42.073Z,95570.53
2022-12-23T04:59:10.533Z,95569.72
2022-12-23T05:01:37.752Z,95589.63
2022-12-23T05:04:05.058Z,95595.00
2022-12-23T05:06:32.047Z,95580.28
2022-12-23T05:08:59.050Z,95581.88
2022-12-23T05:11:26.138Z,95595.81
2022-12-23T05:13:53.192Z,95594.16
2022-12-23T05:16:20.423Z,95597.56
2022-12-23T05:18:47.460Z,95599.53
2022-12-23T05:21:14.506Z,95602.13
2022-12-23T05:23:41.663Z,95599.69
2022-12-23T05:26:08.687Z,95589.75
2022-12-23T05:28:35.967Z,95607.19
2022-12-23T05:31:08.408Z,95600.81
2022-12-23T05:33:36.001Z,95605.78
2022-12-23T05:36:03.323Z,95603.94
2022-12-23T05:38:30.779Z,95594.16
2022-12-23T05:40:58.205Z,95597.91
2022-12-23T05:43:25.210Z,95596.72
2022-12-23T05:45:52.375Z,95594.13
2022-12-23T05:48:19.690Z,95594.28
2022-12-23T05:50:51.026Z,95588.69
2022-12-23T05:53:18.112Z,95587.94
2022-12-23T05:55:45.474Z,95594.69
2022-12-23T05:58:12.495Z,95603.53
2022-12-23T06:00:39.566Z,95599.97
2022-12-23T06:03:06.791Z,95605.97
2022-12-23T06:05:34.035Z,95612.75
2022-12-23T06:08:01.123Z,95610.00
2022-12-23T06:10:28.215Z,95595.66
2022-12-23T06:12:55.315Z,95592.88
2022-12-23T06:15:22.388Z,95576.34
2022-12-23T06:17:50.254Z,95563.66
2022-12-23T06:20:20.652Z,95574.81
2022-12-23T06:22:48.337Z,95599.47
2022-12-23T06:25:15.588Z,95597.91
2022-12-23T06:27:42.626Z,95603.28
2022-12-23T06:30:10.716Z,95597.91
2022-12-23T06:32:38.856Z,95602.47
2022-12-23T06:35:07.673Z,95592.53
2022-12-23T06:37:34.993Z,95600.91
2022-12-23T06:40:02.391Z,95589.16
2022-12-23T06:42:29.567Z,95596.13
2022-12-23T06:44:56.507Z,95583.63
2022-12-23T06:47:23.607Z,95588.19
2022-12-23T06:49:50.586Z,95591.19
2022-12-23T06:52:17.763Z,95596.41
2022-12-23T06:54:44.874Z,95594.53
2022-12-23T06:57:12.013Z,95609.41
2022-12-23T06:59:38.985Z,95604.97
2022-12-23T07:02:06.826Z,95615.28
2022-12-23T07:04:34.048Z,95622.59
2022-12-23T07:07:01.038Z,95624.16
2022-12-23T07:09:28.193Z,95611.00
2022-12-23T07:11:55.167Z,95615.72
2022-12-23T07:14:22.204Z,95618.31
2022-12-23T07:16:49.301Z,95627.31
2022-12-23T07:19:16.445Z,95626.53
2022-12-23T07:21:43.408Z,95613.72
2022-12-23T07:24:10.665Z,95613.50
2022-12-23T07:26:37.746Z,95614.63
2022-12-23T07:29:05.385Z,95607.91
2022-12-23T07:31:32.505Z,95611.06
2022-12-23T07:33:59.776Z,95626.19
2022-12-23T07:36:27.032Z,95629.03
2022-12-23T07:38:54.101Z,95623.69
2022-12-23T07:41:21.194Z,95625.69
2022-12-23T07:43:48.190Z,95630.06
2022-12-23T07:46:15.366Z,95627.50
2022-12-23T07:48:43.443Z,95626.84
2022-12-23T07:51:10.800Z,95631.22
2022-12-23T07:53:37.944Z,95636.97
2022-12-23T07:56:05.512Z,95642.31
2022-12-23T07:58:32.647Z,95646.81
2022-12-23T08:01:05.694Z,95629.97
2022-12-23T08:03:32.922Z,95629.84
2022-12-23T08:06:05.965Z,95637.16
2022-12-23T08:08:33.706Z,95636.69
2022-12-23T08:11:03.048Z,95638.41
2022-12-23T08:13:32.025Z,95632.44
2022-12-23T08:16:00.889Z,95628.84
2022-12-23T08:18:30.809Z,95619.69
2022-12-23T08:21:00.447Z,95635.44
2022-12-23T08:23:28.901Z,95635.66
2022-12-23T08:26:13.677Z,95635.59
2022-12-23T08:28:42.517Z,95636.31
2022-12-23T08:31:18.402Z,95626.53
2022-12-23T08:33:48.353Z,95615.09
2022-12-23T08:36:23.400Z,95626.41
2022-12-23T08:38:53.065Z,95630.53
2022-12-23T08:41:24.957Z,95631.44
2022-12-23T08:43:52.366Z,95641.72
2022-12-23T08:46:20.406Z,95644.97
2022-12-23T08:48:49.795Z,95652.09
2022-12-23T08:51:19.028Z,95645.38
2022-12-23T08:53:46.844Z,95649.63
2022-12-23T08:56:18.966Z,95642.91
2022-12-23T08:58:47.824Z,95651.09
2022-12-23T09:01:17.142Z,95657.69
2022-12-23T09:03:45.285Z,95666.50
2022-12-23T09:06:26.540Z,95653.78
2022-12-23T09:08:56.363Z,95644.19
2022-12-23T09:11:26.265Z,95651.09
2022-12-23T09:13:53.812Z,95642.53
2022-12-23T09:16:21.461Z,95643.78
2022-12-23T09:18:48.567Z,95645.50
2022-12-23T09:21:18.746Z,95643.34
2022-12-23T09:23:45.916Z,95633.94
2022-12-23T09:26:29.067Z,95639.59
2022-12-23T09:28:57.444Z,95641.72
2022-12-23T09:31:27.983Z,95636.19
2022-12-23T09:33:59.552Z,95637.03
2022-12-23T09:36:26.547Z,95621.75
2022-12-23T09:38:55.733Z,95619.06
2022-12-23T09:41:50.775Z,95612.50
2022-12-23T09:44:37.647Z,95602.06
2022-12-23T09:47:13.567Z,95588.34
2022-12-23T09:49:47.625Z,95594.97
2022-12-23T09:52:41.735Z,95601.38
2022-12-23T09:55:12.110Z,95583.50
2022-12-23T09:58:06.747Z,95586.38
2022-12-23T10:00:43.014Z,95587.34
2022-12-23T10:03:35.847Z,95584.69
2022-12-23T10:06:11.541Z,95590.03
2022-12-23T10:09:01.485Z,95594.38
2022-12-23T10:11:32.615Z,95591.00
2022-12-23T10:14:25.291Z,95587.72
2022-12-23T10:17:12.448Z,95586.81
2022-12-23T10:19:45.987Z,95594.03
2022-12-23T10:22:39.507Z,95589.19
2022-12-23T10:25:15.807Z,95592.44
2022-12-23T10:27:44.266Z,95589.09
2022-12-23T10:30:42.626Z,95594.16
2022-12-23T10:33:28.527Z,95597.94
2022-12-23T10:36:04.406Z,95606.75
2022-12-23T10:38:58.507Z,95601.84
2022-12-23T10:41:48.531Z,95607.97
2022-12-23T10:44:56.648Z,95595.44
2022-12-23T10:47:53.348Z,95595.22
2022-12-23T10:50:33.656Z,95595.97
2022-12-23T10:53:05.048Z,95592.00
2022-12-23T10:55:38.669Z,95594.22
2022-12-23T10:58:17.809Z,95594.13
2022-12-23T11:01:14.996Z,95589.22
2022-12-23T11:04:09.130Z,95580.34
2022-12-23T11:06:43.800Z,95570.66
2022-12-23T11:09:28.477Z,95584.81
2022-12-23T11:12:02.340Z,95581.47
2022-12-23T11:14:37.859Z,95580.16
2022-12-23T11:17:17.942Z,95568.25
2022-12-23T11:19:45.229Z,95573.97
2022-12-23T11:22:23.529Z,95560.72
2022-12-23T11:24:51.709Z,95564.31
2022-12-23T11:27:20.028Z,95556.16
2022-12-23T11:29:54.167Z,95556.75
2022-12-23T11:32:25.083Z,95560.47
2022-12-23T11:34:53.574Z,95570.06
2022-12-23T11:37:42.591Z,95557.84
2022-12-23T11:40:32.923Z,95562.72
2022-12-23T11:43:03.692Z,95565.09
2022-12-23T11:45:35.729Z,95560.28
2022-12-23T11:48:06.228Z,95563.28
2022-12-23T11:50:37.464Z,95558.00
2022-12-23T11:53:11.788Z,95557.03
2022-12-23T11:56:03.653Z,95559.75
2022-12-23T11:58:37.108Z,95563.16
2022-12-23T12:13:41.749Z,95544.09
2022-12-23T12:16:14.400Z,95546.78
2022-12-23T12:18:47.090Z,95537.00
2022-12-23T12:21:31.558Z,95540.66
2022-12-23T12:24:24.853Z,95535.44
2022-12-23T12:26:54.950Z,95533.34
2022-12-23T12:29:36.953Z,95545.31
2022-12-23T12:32:07.795Z,95542.34
2022-12-23T12:34:37.887Z,95549.22
2022-12-23T12:37:27.946Z,95540.44
2022-12-23T12:40:04.256Z,95539.16
2022-12-23T12:42:42.292Z,95533.91
2022-12-23T12:45:18.481Z,95526.34
2022-12-23T12:48:11.652Z,95523.72
2022-12-23T12:51:05.987Z,95522.94
2022-12-23T12:53:34.019Z,95520.28
2022-12-23T12:56:11.175Z,95521.28
2022-12-23T12:58:39.545Z,95526.44
2022-12-23T13:01:18.594Z,95524.72
2022-12-23T13:04:21.639Z,95534.16
2022-12-23T13:07:02.165Z,95533.88
2022-12-23T13:09:48.046Z,95532.19
2022-12-23T13:12:29.391Z,95532.09
2022-12-23T13:15:05.716Z,95511.34
2022-12-23T13:17:39.685Z,95526.31
2022-12-23T13:20:27.751Z,95514.78
2022-12-23T13:23:27.135Z,95507.81
2022-12-23T13:26:01.350Z,95520.47
2022-12-23T13:29:16.045Z,95513.19
2022-12-23T13:31:55.293Z,95516.34
2022-12-23T13:34:46.686Z,95513.00
2022-12-23T13:37:30.572Z,95526.75
2022-12-23T13:40:23.648Z,95520.81
2022-12-23T13:42:55.804Z,95538.28
2022-12-23T13:45:31.936Z,95529.75
2022-12-23T13:48:19.968Z,95535.66
2022-12-23T13:50:55.619Z,95525.31
2022-12-23T13:53:48.526Z,95524.38
2022-12-23T13:56:30.122Z,95525.97
2022-12-23T13:58:58.705Z,95539.56
2022-12-23T14:01:43.868Z,95536.75
2022-12-23T14:04:33.569Z,95539.81
2022-12-23T14:07:23.331Z,95553.03
2022-12-23T14:09:57.248Z,95561.75
2022-12-23T14:12:31.451Z,95574.38
2022-12-23T14:15:39.513Z,95570.56
2022-12-23T14:18:35.085Z,95572.94
2022-12-23T14:21:33.390Z,95569.50
2022-12-23T14:24:28.987Z,95572.94
2022-12-23T14:27:05.028Z,95561.38
2022-12-23T14:30:10.785Z,95576.72
2022-12-23T14:33:00.558Z,95577.91
2022-12-23T14:35:30.365Z,95584.91
2022-12-23T14:38:23.172Z,95584.75
2022-12-23T14:40:51.902Z,95566.91
2022-12-23T14:43:22.605Z,95568.88
2022-12-23T14:45:50.869Z,95570.28
2022-12-23T14:48:36.163Z,95572.66
2022-12-23T14:51:06.967Z,95565.09
2022-12-23T14:53:35.373Z,95560.16
2022-12-23T14:56:08.509Z,95562.56
2022-12-23T14:58:54.220Z,95568.66
2022-12-23T15:01:51.986Z,95573.94
2022-12-23T15:04:22.409Z,95566.34
2022-12-23T15:07:02.082Z,95555.06
2022-12-23T15:09:40.223Z,95559.81
2022-12-23T15:12:16.218Z,95566.31
2022-12-23T15:15:11.990Z,95560.00
2022-12-23T15:17:40.047Z,95560.00
2022-12-23T15:20:10.099Z,95557.63
2022-12-23T15:22:38.108Z,95552.63
2022-12-23T15:25:18.576Z,95544.22
2022-12-23T15:27:45.768Z,95542.63
2022-12-23T15:30:14.489Z,95552.28
2022-12-23T15:32:48.508Z,95550.16
2022-12-23T15:35:25.394Z,95559.28
2022-12-23T15:37:52.809Z,95568.97
2022-12-23T15:40:37.149Z,95574.47
2022-12-23T15:43:24.121Z,95567.34
2022-12-23T15:45:52.348Z,95562.84
2022-12-23T15:48:33.135Z,95567.25
2022-12-23T15:51:06.518Z,95571.63
2022-12-23T15:53:39.165Z,95565.84
2022-12-23T15:56:12.108Z,95571.63
2022-12-23T15:58:42.585Z,95573.69
2022-12-23T16:01:15.688Z,95577.59
2022-12-23T16:03:53.361Z,95562.66
2022-12-23T16:06:25.594Z,95577.81
2022-12-23T16:09:06.888Z,95579.31
2022-12-23T16:11:53.501Z,95567.25
2022-12-23T16:14:31.515Z,95569.03
2022-12-23T16:17:00.508Z,95574.00
2022-12-23T16:19:39.083Z,95565.84
2022-12-23T16:22:20.383Z,95565.50
2022-12-23T16:24:51.820Z,95555.25
2022-12-23T16:27:32.270Z,95562.53
2022-12-23T16:30:02.677Z,95568.47
2022-12-23T16:32:29.801Z,95557.41
2022-12-23T16:34:56.877Z,95562.06
2022-12-23T16:37:23.935Z,95570.41
2022-12-23T16:39:50.986Z,95574.31
2022-12-23T16:42:19.076Z,95571.13
2022-12-23T16:44:46.127Z,95573.16
2022-12-23T16:47:17.691Z,95589.09
2022-12-23T16:49:45.210Z,95578.69
2022-12-23T16:52:14.513Z,95576.22
2022-12-23T16:54:42.775Z,95571.72
2022-12-23T16:57:10.636Z,95580.31
2022-12-23T16:59:41.278Z,95582.53
2022-12-23T17:02:21.423Z,95583.47
2022-12-23T17:04:48.606Z,95582.09
2022-12-23T17:07:15.629Z,95589.63
2022-12-23T17:09:42.625Z,95579.09
2022-12-23T17:12:10.226Z,95579.81
2022-12-23T17:14:37.267Z,95584.50
2022-12-23T17:17:13.582Z,95581.09
2022-12-23T17:19:40.695Z,95584.75
2022-12-23T17:22:13.065Z,95577.94
2022-12-23T17:24:40.245Z,95584.97
2022-12-23T17:27:15.946Z,95587.59
2022-12-23T17:29:43.370Z,95578.41
2022-12-23T17:32:15.299Z,95595.59
2022-12-23T17:34:42.531Z,95585.63
2022-12-23T17:37:20.254Z,95600.78
2022-12-23T17:39:48.405Z,95606.47
2022-12-23T17:42:24.898Z,95609.06
2022-12-23T17:44:52.840Z,95596.81
2022-12-23T17:47:22.653Z,95596.00
2022-12-23T17:49:49.944Z,95597.59
2022-12-23T17:52:20.105Z,95588.97
2022-12-23T17:54:49.147Z,95590.00
2022-12-23T17:57:20.594Z,95591.81
2022-12-23T17:59:49.286Z,95589.78
2022-12-23T18:02:38.370Z,95585.09
2022-12-23T18:05:27.875Z,95599.72
2022-12-23T18:08:01.129Z,95583.25
2022-12-23T18:10:32.812Z,95589.81
2022-12-23T18:13:02.162Z,95589.03
2022-12-23T18:15:39.992Z,95582.63
2022-12-23T18:18:24.113Z,95593.88
2022-12-23T18:20:57.459Z,95580.03
2022-12-23T18:23:29.956Z,95585.50
2022-12-23T18:25:57.838Z,95574.28
2022-12-23T18:28:25.464Z,95586.00
2022-12-23T18:30:55.219Z,95593.81
2022-12-23T18:33:24.335Z,95578.16
2022-12-23T18:35:51.418Z,95579.75
2022-12-23T18:38:18.822Z,95575.00
2022-12-23T18:40:46.252Z,95598.97
2022-12-23T18:43:22.074Z,95589.34
2022-12-23T18:45:53.273Z,95578.91
2022-12-23T18:48:21.646Z,95582.53
2022-12-23T18:50:49.178Z,95586.97
2022-12-23T18:53:23.749Z,95579.69
2022-12-23T18:55:52.091Z,95589.78
2022-12-23T18:58:19.674Z,95588.78
2022-12-23T19:00:47.923Z,95588.16
2022-12-23T19:03:23.913Z,95580.56
2022-12-23T19:05:52.505Z,95576.69
2022-12-23T19:08:26.247Z,95565.22
2022-12-23T19:10:54.329Z,95567.03
2022-12-23T19:13:21.403Z,95562.63
2022-12-23T19:15:48.524Z,95546.97
2022-12-23T19:18:18.168Z,95551.38
2022-12-23T19:20:46.484Z,95550.88
2022-12-23T19:23:14.066Z,95550.19
2022-12-23T19:25:46.193Z,95558.72
2022-12-23T19:28:19.517Z,95565.84
2022-12-23T19:30:46.644Z,95572.88
2022-12-23T19:33:13.687Z,95571.53
2022-12-23T19:35:44.541Z,95573.59
2022-12-23T19:38:12.696Z,95569.88
2022-12-23T19:40:40.248Z,95566.81
2022-12-23T19:43:07.775Z,95562.34
2022-12-23T19:45:34.943Z,95564.72
2022-12-23T19:48:02.021Z,95556.09
2022-12-23T19:50:29.116Z,95544.88
2022-12-23T19:52:56.683Z,95544.09
2022-12-23T19:55:24.020Z,95538.88
2022-12-23T19:57:51.978Z,95535.72
2022-12-23T20:00:19.098Z,95534.63
2022-12-23T20:02:46.235Z,95529.63
2022-12-23T20:05:13.389Z,95536.94
2022-12-23T20:07:40.527Z,95530.41
2022-12-23T20:10:08.206Z,95510.75
2022-12-23T20:12:35.247Z,95509.44
2022-12-23T20:15:02.403Z,95502.09
2022-12-23T20:17:29.406Z,95496.31
2022-12-23T20:19:56.412Z,95491.59
2022-12-23T20:22:23.530Z,95499.41
2022-12-23T20:24:51.186Z,95522.56
2022-12-23T20:27:22.677Z,95514.28
2022-12-23T20:29:53.328Z,95519.25
2022-12-23T20:32:21.246Z,95525.50
2022-12-23T20:34:50.193Z,95521.38
2022-12-23T20:37:17.850Z,95506.59
2022-12-23T20:39:44.839Z,95519.38
2022-12-23T20:42:11.892Z,95528.16
2022-12-23T20:44:39.002Z,95515.97
2022-12-23T20:47:06.630Z,95509.25
2022-12-23T20:49:33.746Z,95509.44
2022-12-23T20:52:01.304Z,95507.28
2022-12-23T20:54:33.084Z,95511.31
2022-12-23T20:57:01.953Z,95504.03
2022-12-23T20:59:29.310Z,95502.50
2022-12-23T21:01:59.371Z,95511.38
2022-12-23T21:04:26.676Z,95517.38
2022-12-23T21:06:53.929Z,95512.66
2022-12-23T21:09:20.957Z,95512.72
2022-12-23T21:11:48.717Z,95521.91
2022-12-23T21:14:16.309Z,95526.09
2022-12-23T21:16:43.865Z,95534.44
2022-12-23T21:19:17.355Z,95530.09
2022-12-23T21:21:45.429Z,95533.22
2022-12-23T21:24:13.174Z,95529.03
2022-12-23T21:26:40.610Z,95510.78
2022-12-23T21:29:09.830Z,95510.72
2022-12-23T21:31:39.428Z,95506.00
2022-12-23T21:34:07.625Z,95504.66
2022-12-23T21:36:37.238Z,95505.13
2022-12-23T21:39:05.835Z,95491.78
2022-12-23T21:41:38.011Z,95497.19
2022-12-23T21:44:05.812Z,95485.88
2022-12-23T21:46:33.168Z,95482.75
2022-12-23T21:49:00.742Z,95469.59
2022-12-23T21:51:36.921Z,95467.72
2022-12-23T21:54:06.737Z,95460.41
2022-12-23T21:56:33.788Z,95459.53
2022-12-23T21:59:03.966Z,95465.25
2022-12-23T22:01:31.666Z,95489.25
2022-12-23T22:03:59.087Z,95487.13
2022-12-23T22:06:28.897Z,95484.75
2022-12-23T22:08:57.269Z,95483.41
2022-12-23T22:11:25.324Z,95478.47
2022-12-23T22:13:53.185Z,95466.34
2022-12-23T22:16:22.453Z,95467.88
2022-12-23T22:18:50.786Z,95465.25
2022-12-23T22:21:19.208Z,95480.13
2022-12-23T22:23:47.066Z,95485.03
2022-12-23T22:26:22.129Z,95500.81
2022-12-23T22:28:51.566Z,95507.16
2022-12-23T22:31:24.330Z,95504.53
2022-12-23T22:33:51.444Z,95507.38
2022-12-23T22:36:18.583Z,95506.91
2022-12-23T22:38:55.129Z,95507.94
2022-12-23T22:41:23.412Z,95505.88
2022-12-23T22:43:50.319Z,95515.97
2022-12-23T22:46:18.676Z,95509.97
2022-12-23T22:48:46.431Z,95525.31
2022-12-23T22:51:25.025Z,95512.19
2022-12-23T22:53:52.193Z,95499.94
2022-12-23T22:56:21.057Z,95510.06
2022-12-23T22:58:49.332Z,95492.53
2022-12-23T23:01:21.625Z,95475.56
2022-12-23T23:03:51.348Z,95483.78
2022-12-23T23:06:19.015Z,95488.13
2022-12-23T23:08:46.108Z,95478.38
2022-12-23T23:11:13.235Z,95485.56
2022-12-23T23:13:40.336Z,95488.91
2022-12-23T23:16:07.714Z,95485.72
2022-12-23T23:18:34.918Z,95474.75
2022-12-23T23:21:01.978Z,95473.88
2022-12-23T23:23:29.066Z,95459.50
2022-12-23T23:25:56.072Z,95439.75
2022-12-23T23:28:23.093Z,95450.72
2022-12-23T23:31:03.615Z,95464.56
2022-12-23T23:33:37.267Z,95467.09
2022-12-23T23:36:04.832Z,95478.63
2022-12-23T23:38:31.890Z,95457.00
2022-12-23T23:40:59.133Z,95474.97
2022-12-23T23:43:26.204Z,95467.09
2022-12-23T23:45:53.211Z,95489.81
2022-12-23T23:48:21.227Z,95456.81
2022-12-23T23:50:48.693Z,95467.09
2022-12-23T23:53:16.551Z,95465.84
2022-12-23T23:55:43.691Z,95462.53
2022-12-23T23:58:12.085Z,95468.44
